createdAt,value
2022-09-23T00:02:22.626Z,99488.20
2022-09-23T00:04:50.345Z,99488.00
2022-09-23T00:07:18.085Z,99485.00
2022-09-23T00:09:45.636Z,99488.20
2022-09-23T00:12:13.217Z,99487.00
2022-09-23T00:14:40.867Z,99483.60
2022-09-23T00:17:08.438Z,99477.80
2022-09-23T00:19:40.261Z,99471.60
2022-09-23T00:22:08.834Z,99479.80
2022-09-23T00:24:36.434Z,99481.40
2022-09-23T00:27:04.555Z,99474.60
2022-09-23T00:29:32.254Z,99469.80
2022-09-23T00:32:00.089Z,99468.00
2022-09-23T00:34:27.980Z,99464.80
2022-09-23T00:36:57.004Z,99467.00
2022-09-23T00:39:26.465Z,99466.80
2022-09-23T00:41:54.632Z,99470.60
2022-09-23T00:44:43.431Z,99474.60
2022-09-23T00:48:01.521Z,99473.60
2022-09-23T00:50:40.174Z,99469.60
2022-09-23T00:53:12.573Z,99470.60
2022-09-23T00:55:48.636Z,99465.60
2022-09-23T00:58:26.796Z,99457.40
2022-09-23T01:00:55.647Z,99458.20
2022-09-23T01:03:23.397Z,99455.00
2022-09-23T01:05:52.844Z,99457.20
2022-09-23T01:08:23.573Z,99451.40
2022-09-23T01:11:38.084Z,99450.00
2022-09-23T01:14:40.476Z,99446.40
2022-09-23T01:17:39.567Z,99446.40
2022-09-23T01:20:28.611Z,99449.40
2022-09-23T01:23:12.948Z,99446.00
2022-09-23T01:26:04.645Z,99441.40
2022-09-23T01:29:02.637Z,99447.20
2022-09-23T01:31:44.912Z,99449.80
2022-09-23T01:34:48.601Z,99443.60
2022-09-23T01:37:50.183Z,99443.60
2022-09-23T01:40:34.045Z,99445.20
2022-09-23T01:43:13.176Z,99450.00
2022-09-23T01:45:48.000Z,99448.60
2022-09-23T01:49:11.314Z,99452.00
2022-09-23T01:51:51.077Z,99443.60
2022-09-23T01:54:42.392Z,99440.00
2022-09-23T01:57:21.872Z,99441.80
2022-09-23T01:59:59.392Z,99442.80
2022-09-23T02:02:36.645Z,99435.40
2022-09-23T02:05:18.303Z,99431.80
2022-09-23T02:08:03.269Z,99430.40
2022-09-23T02:10:41.928Z,99434.20
2022-09-23T02:13:36.161Z,99438.80
2022-09-23T02:16:16.399Z,99435.80
2022-09-23T02:18:59.418Z,99436.20
2022-09-23T02:21:35.013Z,99437.00
2022-09-23T02:24:14.594Z,99434.40
2022-09-23T02:26:55.848Z,99437.60
2022-09-23T02:29:49.562Z,99435.40
2022-09-23T02:32:38.888Z,99431.60
2022-09-23T02:35:25.551Z,99433.80
2022-09-23T02:38:29.320Z,99431.20
2022-09-23T02:41:07.546Z,99426.60
2022-09-23T02:43:50.504Z,99429.80
2022-09-23T02:46:19.510Z,99427.20
2022-09-23T02:48:56.917Z,99432.40
2022-09-23T02:51:25.776Z,99424.20
2022-09-23T02:53:57.095Z,99430.00
2022-09-23T02:56:25.067Z,99432.20
2022-09-23T02:58:55.692Z,99432.00
2022-09-23T03:02:27.077Z,99431.80
2022-09-23T03:05:09.712Z,99426.40
2022-09-23T03:08:06.891Z,99428.40
2022-09-23T03:11:07.191Z,99432.60
2022-09-23T03:14:07.214Z,99431.40
2022-09-23T03:17:06.266Z,99427.00
2022-09-23T03:19:50.974Z,99431.80
2022-09-23T03:22:30.067Z,99430.80
2022-09-23T03:25:11.000Z,99433.40
2022-09-23T03:27:42.379Z,99425.00
2022-09-23T03:30:13.027Z,99432.40
2022-09-23T03:32:47.049Z,99420.80
2022-09-23T03:35:14.984Z,99423.00
2022-09-23T03:38:15.523Z,99421.20
2022-09-23T03:40:50.839Z,99424.60
2022-09-23T03:43:18.940Z,99425.80
2022-09-23T03:45:47.264Z,99417.00
2022-09-23T03:48:15.726Z,99414.80
2022-09-23T03:50:43.281Z,99413.20
2022-09-23T03:53:13.680Z,99416.60
2022-09-23T03:55:41.241Z,99416.80
2022-09-23T03:58:09.028Z,99416.60
2022-09-23T04:00:36.730Z,99409.80
2022-09-23T04:03:07.191Z,99411.40
2022-09-23T04:05:38.684Z,99415.40
2022-09-23T04:08:06.427Z,99414.80
2022-09-23T04:10:33.987Z,99417.20
2022-09-23T04:13:01.554Z,99415.80
2022-09-23T04:15:29.093Z,99416.00
2022-09-23T04:17:56.701Z,99419.40
2022-09-23T04:20:24.261Z,99421.60
2022-09-23T04:22:51.868Z,99415.80
2022-09-23T04:25:19.503Z,99411.00
2022-09-23T04:27:47.236Z,99407.80
2022-09-23T04:30:14.951Z,99404.00
2022-09-23T04:32:42.558Z,99406.00
2022-09-23T04:35:10.134Z,99407.60
2022-09-23T04:37:37.800Z,99406.60
2022-09-23T04:40:06.417Z,99407.60
2022-09-23T04:42:34.035Z,99408.80
2022-09-23T04:45:01.796Z,99408.00
2022-09-23T04:47:32.713Z,99411.00
2022-09-23T04:50:00.298Z,99414.20
2022-09-23T04:52:29.922Z,99409.80
2022-09-23T04:54:57.572Z,99407.60
2022-09-23T04:57:25.315Z,99411.20
2022-09-23T04:59:55.766Z,99407.60
2022-09-23T05:02:24.820Z,99408.20
2022-09-23T05:04:52.594Z,99414.00
2022-09-23T05:07:20.320Z,99419.20
2022-09-23T05:09:48.272Z,99416.00
2022-09-23T05:12:15.882Z,99419.80
2022-09-23T05:14:43.635Z,99421.40
2022-09-23T05:17:11.863Z,99422.20
2022-09-23T05:19:39.411Z,99423.80
2022-09-23T05:22:07.155Z,99427.20
2022-09-23T05:24:34.700Z,99435.00
2022-09-23T05:27:02.804Z,99435.20
2022-09-23T05:29:30.404Z,99435.80
2022-09-23T05:31:58.163Z,99437.60
2022-09-23T05:34:25.795Z,99430.40
2022-09-23T05:36:53.609Z,99435.40
2022-09-23T05:39:21.272Z,99442.60
2022-09-23T05:41:49.124Z,99437.20
2022-09-23T05:44:16.707Z,99438.80
2022-09-23T05:46:44.534Z,99445.00
2022-09-23T05:49:12.405Z,99438.20
2022-09-23T05:51:40.287Z,99439.80
2022-09-23T05:54:08.456Z,99442.20
2022-09-23T05:56:37.838Z,99444.80
2022-09-23T05:59:06.886Z,99442.00
2022-09-23T06:01:36.789Z,99439.20
2022-09-23T06:04:08.145Z,99435.80
2022-09-23T06:06:42.260Z,99438.80
2022-09-23T06:09:14.696Z,99440.00
2022-09-23T06:11:43.095Z,99432.80
2022-09-23T06:14:14.908Z,99434.40
2022-09-23T06:16:43.279Z,99433.00
2022-09-23T06:19:11.180Z,99436.00
2022-09-23T06:21:40.969Z,99437.20
2022-09-23T06:24:12.228Z,99438.60
2022-09-23T06:26:41.068Z,99438.60
2022-09-23T06:29:11.909Z,99440.20
2022-09-23T06:31:42.029Z,99437.00
2022-09-23T06:34:14.155Z,99439.40
2022-09-23T06:36:45.909Z,99433.40
2022-09-23T06:39:15.521Z,99441.20
2022-09-23T06:41:45.219Z,99442.00
2022-09-23T06:44:14.815Z,99444.20
2022-09-23T06:46:42.677Z,99439.20
2022-09-23T06:49:13.275Z,99440.40
2022-09-23T06:51:41.543Z,99449.60
2022-09-23T06:54:09.672Z,99445.80
2022-09-23T06:56:39.488Z,99445.00
2022-09-23T06:59:13.154Z,99442.00
2022-09-23T07:01:41.643Z,99440.20
2022-09-23T07:04:10.832Z,99442.60
2022-09-23T07:06:38.976Z,99445.40
2022-09-23T07:09:08.966Z,99445.00
2022-09-23T07:11:37.840Z,99449.80
2022-09-23T07:14:05.938Z,99449.00
2022-09-23T07:16:33.581Z,99443.00
2022-09-23T07:19:01.169Z,99446.20
2022-09-23T07:21:28.937Z,99445.40
2022-09-23T07:23:58.230Z,99440.00
2022-09-23T07:26:26.548Z,99438.00
2022-09-23T07:28:56.679Z,99435.60
2022-09-23T07:31:37.401Z,99437.60
2022-09-23T07:34:09.969Z,99441.00
2022-09-23T07:36:41.082Z,99439.00
2022-09-23T07:39:12.928Z,99439.40
2022-09-23T07:41:44.406Z,99432.20
2022-09-23T07:44:12.611Z,99439.20
2022-09-23T07:46:40.452Z,99443.80
2022-09-23T07:49:09.236Z,99446.80
2022-09-23T07:51:39.762Z,99445.40
2022-09-23T07:54:14.730Z,99444.60
2022-09-23T07:56:44.294Z,99447.40
2022-09-23T07:59:18.198Z,99443.20
2022-09-23T08:01:52.684Z,99447.80
2022-09-23T08:04:28.269Z,99447.00
2022-09-23T08:07:02.268Z,99441.80
2022-09-23T08:09:41.765Z,99447.80
2022-09-23T08:12:19.126Z,99444.20
2022-09-23T08:14:46.688Z,99448.40
2022-09-23T08:17:14.461Z,99440.60
2022-09-23T08:19:42.280Z,99439.40
2022-09-23T08:22:09.913Z,99443.60
2022-09-23T08:24:37.939Z,99437.00
2022-09-23T08:27:05.883Z,99440.20
2022-09-23T08:29:33.473Z,99439.40
2022-09-23T08:32:01.392Z,99435.80
2022-09-23T08:34:29.844Z,99434.20
2022-09-23T08:36:57.493Z,99429.40
2022-09-23T08:39:25.023Z,99427.60
2022-09-23T08:42:14.568Z,99427.20
2022-09-23T08:45:16.082Z,99432.60
2022-09-23T08:48:01.944Z,99421.60
2022-09-23T08:50:42.667Z,99422.40
2022-09-23T08:53:29.003Z,99421.00
2022-09-23T08:56:03.176Z,99417.60
2022-09-23T08:58:55.817Z,99416.00
2022-09-23T09:01:39.782Z,99415.60
2022-09-23T09:04:24.027Z,99412.40
2022-09-23T09:07:31.737Z,99408.80
2022-09-23T09:10:23.557Z,99414.20
2022-09-23T09:13:07.593Z,99413.20
2022-09-23T09:15:49.889Z,99407.60
2022-09-23T09:18:21.423Z,99409.20
2022-09-23T09:21:12.641Z,99403.80
2022-09-23T09:23:53.444Z,99405.00
2022-09-23T09:26:33.902Z,99395.60
2022-09-23T09:29:34.097Z,99400.80
2022-09-23T09:32:36.043Z,99394.40
2022-09-23T09:35:22.548Z,99389.20
2022-09-23T09:37:50.313Z,99389.60
2022-09-23T09:40:20.143Z,99387.60
2022-09-23T09:42:50.485Z,99384.40
2022-09-23T09:46:03.743Z,99383.80
2022-09-23T09:48:56.334Z,99378.60
2022-09-23T09:51:27.708Z,99378.00
2022-09-23T09:54:17.331Z,99376.80
2022-09-23T09:56:45.485Z,99369.40
2022-09-23T09:59:25.682Z,99369.40
2022-09-23T10:02:21.430Z,99369.00
2022-09-23T10:04:59.244Z,99360.80
2022-09-23T10:07:31.705Z,99364.00
2022-09-23T10:10:32.281Z,99360.60
2022-09-23T10:13:16.181Z,99367.40
2022-09-23T10:15:45.556Z,99367.00
2022-09-23T10:18:22.931Z,99359.60
2022-09-23T10:20:50.893Z,99356.40
2022-09-23T10:23:27.320Z,99358.80
2022-09-23T10:26:02.744Z,99358.00
2022-09-23T10:28:46.916Z,99346.40
2022-09-23T10:31:25.006Z,99342.80
2022-09-23T10:34:00.428Z,99336.40
2022-09-23T10:36:32.433Z,99336.20
2022-09-23T10:39:22.684Z,99340.40
2022-09-23T10:42:27.896Z,99340.60
2022-09-23T10:45:41.231Z,99336.80
2022-09-23T10:49:09.192Z,99337.40
2022-09-23T10:52:27.157Z,99333.60
2022-09-23T10:55:25.589Z,99336.60
2022-09-23T10:58:23.942Z,99338.00
2022-09-23T11:01:18.702Z,99336.80
2022-09-23T11:04:34.024Z,99331.60
2022-09-23T11:08:05.733Z,99330.60
2022-09-23T11:11:24.412Z,99329.00
2022-09-23T11:14:25.546Z,99324.20
2022-09-23T11:17:16.053Z,99323.80
2022-09-23T11:20:17.919Z,99316.60
2022-09-23T11:23:18.662Z,99313.00
2022-09-23T11:26:33.254Z,99306.20
2022-09-23T11:30:00.513Z,99311.40
2022-09-23T11:33:16.289Z,99311.00
2022-09-23T11:35:58.992Z,99307.20
2022-09-23T11:38:48.568Z,99304.40
2022-09-23T11:41:25.869Z,99291.40
2022-09-23T11:44:03.295Z,99294.00
2022-09-23T11:46:43.684Z,99287.20
2022-09-23T11:49:27.500Z,99289.40
2022-09-23T11:52:19.527Z,99281.20
2022-09-23T11:54:57.935Z,99276.40
2022-09-23T11:57:49.029Z,99274.40
2022-09-23T12:00:34.426Z,99268.20
2022-09-23T12:03:45.034Z,99260.20
2022-09-23T12:06:20.775Z,99257.60
2022-09-23T12:08:59.108Z,99263.60
2022-09-23T12:12:03.355Z,99261.40
2022-09-23T12:14:56.628Z,99259.20
2022-09-23T12:18:03.957Z,99258.20
2022-09-23T12:21:38.725Z,99254.00
2022-09-23T12:25:05.532Z,99252.40
2022-09-23T12:27:48.080Z,99252.80
2022-09-23T12:30:37.225Z,99250.80
2022-09-23T12:33:24.871Z,99249.80
2022-09-23T12:35:56.443Z,99248.60
2022-09-23T12:38:38.410Z,99247.20
2022-09-23T12:41:37.466Z,99247.40
2022-09-23T12:44:31.538Z,99242.60
2022-09-23T12:47:14.517Z,99235.40
2022-09-23T12:49:43.745Z,99237.00
2022-09-23T12:52:11.750Z,99231.60
2022-09-23T12:54:42.925Z,99230.00
2022-09-23T12:57:31.995Z,99226.60
2022-09-23T13:00:18.160Z,99223.20
2022-09-23T13:03:11.404Z,99218.80
2022-09-23T13:06:19.337Z,99218.60
2022-09-23T13:08:49.588Z,99208.60
2022-09-23T13:11:30.743Z,99207.60
2022-09-23T13:14:04.619Z,99207.80
2022-09-23T13:16:45.938Z,99205.60
2022-09-23T13:19:25.611Z,99203.20
2022-09-23T13:22:09.547Z,99201.60
2022-09-23T13:24:52.172Z,99199.00
2022-09-23T13:27:29.306Z,99195.20
2022-09-23T13:29:59.469Z,99191.20
2022-09-23T13:32:37.455Z,99194.20
2022-09-23T13:35:32.419Z,99187.40
2022-09-23T13:38:19.740Z,99190.40
2022-09-23T13:40:47.595Z,99184.00
2022-09-23T13:43:27.392Z,99183.80
2022-09-23T13:45:55.198Z,99187.00
2022-09-23T13:48:25.709Z,99185.80
2022-09-23T13:50:54.641Z,99179.80
2022-09-23T13:53:31.848Z,99179.20
2022-09-23T13:56:24.906Z,99178.20
2022-09-23T13:58:53.037Z,99178.00
2022-09-23T14:01:34.813Z,99167.80
2022-09-23T14:04:02.985Z,99175.00
2022-09-23T14:06:41.101Z,99180.60
2022-09-23T14:09:08.709Z,99177.60
2022-09-23T14:11:37.279Z,99177.80
2022-09-23T14:14:08.136Z,99176.40
2022-09-23T14:16:40.391Z,99175.20
2022-09-23T14:19:17.798Z,99173.80
2022-09-23T14:21:50.755Z,99171.40
2022-09-23T14:24:33.346Z,99166.00
2022-09-23T14:27:07.216Z,99164.00
2022-09-23T14:29:38.126Z,99163.60
2022-09-23T14:32:28.603Z,99161.80
2022-09-23T14:35:05.198Z,99164.00
2022-09-23T14:37:56.885Z,99168.80
2022-09-23T14:40:32.218Z,99164.40
2022-09-23T14:43:15.854Z,99165.80
2022-09-23T14:45:52.383Z,99164.60
2022-09-23T14:48:34.283Z,99158.40
2022-09-23T14:51:10.955Z,99161.40
2022-09-23T14:53:48.733Z,99155.20
2022-09-23T14:56:23.218Z,99155.00
2022-09-23T14:59:00.097Z,99156.60
2022-09-23T15:01:37.275Z,99154.00
2022-09-23T15:04:30.961Z,99154.40
2022-09-23T15:07:05.700Z,99153.20
2022-09-23T15:09:38.759Z,99154.20
2022-09-23T15:12:14.941Z,99153.40
2022-09-23T15:14:52.020Z,99149.40
2022-09-23T15:17:22.705Z,99146.00
2022-09-23T15:20:01.192Z,99139.80
2022-09-23T15:22:29.357Z,99134.00
2022-09-23T15:25:32.108Z,99131.00
2022-09-23T15:28:10.438Z,99130.60
2022-09-23T15:30:39.553Z,99134.40
2022-09-23T15:33:09.527Z,99131.20
2022-09-23T15:35:40.441Z,99138.40
2022-09-23T15:38:09.784Z,99134.60
2022-09-23T15:40:39.501Z,99134.00
2022-09-23T15:43:24.221Z,99135.00
2022-09-23T15:45:59.119Z,99136.20
2022-09-23T15:48:36.182Z,99131.80
2022-09-23T15:51:09.242Z,99122.20
2022-09-23T15:53:38.220Z,99123.60
2022-09-23T15:56:06.397Z,99127.20
2022-09-23T15:58:34.145Z,99123.80
2022-09-23T16:01:01.870Z,99128.20
2022-09-23T16:03:29.806Z,99128.00
2022-09-23T16:06:02.325Z,99126.80
2022-09-23T16:08:32.879Z,99126.20
2022-09-23T16:11:00.885Z,99128.20
2022-09-23T16:13:28.857Z,99131.60
2022-09-23T16:15:56.543Z,99133.20
2022-09-23T16:18:24.416Z,99135.80
2022-09-23T16:20:52.037Z,99131.80
2022-09-23T16:23:37.108Z,99135.20
2022-09-23T16:26:11.181Z,99139.60
2022-09-23T16:28:38.748Z,99136.80
2022-09-23T16:31:06.566Z,99137.60
2022-09-23T16:33:34.721Z,99144.20
2022-09-23T16:36:02.756Z,99141.60
2022-09-23T16:38:32.089Z,99148.20
2022-09-23T16:41:00.609Z,99147.20
2022-09-23T16:43:32.501Z,99143.60
2022-09-23T16:46:00.258Z,99146.40
2022-09-23T16:48:28.069Z,99147.20
2022-09-23T16:50:55.713Z,99147.80
2022-09-23T16:53:23.661Z,99149.40
2022-09-23T16:55:53.473Z,99151.00
2022-09-23T16:58:21.133Z,99151.40
2022-09-23T17:01:07.855Z,99146.40
2022-09-23T17:03:41.458Z,99143.20
2022-09-23T17:06:13.152Z,99138.20
2022-09-23T17:08:42.731Z,99139.00
2022-09-23T17:11:10.932Z,99145.00
2022-09-23T17:13:41.094Z,99144.00
2022-09-23T17:16:32.023Z,99144.40
2022-09-23T17:19:00.358Z,99145.40
2022-09-23T17:21:28.136Z,99141.00
2022-09-23T17:23:57.901Z,99143.40
2022-09-23T17:26:27.450Z,99139.20
2022-09-23T17:28:58.879Z,99137.60
2022-09-23T17:31:26.805Z,99136.60
2022-09-23T17:33:54.913Z,99138.80
2022-09-23T17:36:22.649Z,99140.00
2022-09-23T17:38:53.879Z,99145.00
2022-09-23T17:41:22.239Z,99149.20
2022-09-23T17:43:57.150Z,99151.20
2022-09-23T17:46:24.809Z,99151.20
2022-09-23T17:48:55.516Z,99150.40
2022-09-23T17:51:25.375Z,99153.20
2022-09-23T17:53:52.957Z,99155.60
2022-09-23T17:56:26.364Z,99156.00
2022-09-23T17:58:54.482Z,99152.20
2022-09-23T18:01:25.399Z,99156.60
2022-09-23T18:04:01.650Z,99153.40
2022-09-23T18:06:32.513Z,99160.40
2022-09-23T18:09:04.215Z,99161.80
2022-09-23T18:11:36.850Z,99160.20
2022-09-23T18:14:12.264Z,99158.80
2022-09-23T18:16:44.137Z,99157.00
2022-09-23T18:19:16.077Z,99156.60
2022-09-23T18:21:48.348Z,99159.00
2022-09-23T18:24:33.890Z,99161.00
2022-09-23T18:27:03.224Z,99161.80
2022-09-23T18:29:33.018Z,99163.60
2022-09-23T18:32:01.813Z,99161.40
2022-09-23T18:34:30.669Z,99164.00
2022-09-23T18:36:58.328Z,99163.40
2022-09-23T18:39:26.019Z,99159.20
2022-09-23T18:41:54.858Z,99161.00
2022-09-23T18:44:23.414Z,99153.40
2022-09-23T18:46:50.993Z,99157.80
2022-09-23T18:49:37.175Z,99152.00
2022-09-23T18:52:04.788Z,99155.80
2022-09-23T18:54:32.458Z,99153.00
2022-09-23T18:57:00.285Z,99153.20
2022-09-23T18:59:29.574Z,99147.00
2022-09-23T19:01:58.569Z,99148.60
2022-09-23T19:04:27.657Z,99147.40
2022-09-23T19:06:56.611Z,99150.00
2022-09-23T19:09:24.989Z,99147.20
2022-09-23T19:11:53.838Z,99146.80
2022-09-23T19:14:21.587Z,99145.00
2022-09-23T19:16:50.680Z,99146.40
2022-09-23T19:19:18.376Z,99143.20
2022-09-23T19:21:46.178Z,99143.60
2022-09-23T19:24:20.066Z,99146.00
2022-09-23T19:26:48.487Z,99144.40
2022-09-23T19:29:21.930Z,99145.00
2022-09-23T19:31:50.237Z,99142.00
2022-09-23T19:34:23.848Z,99143.20
2022-09-23T19:36:52.886Z,99144.20
2022-09-23T19:39:24.203Z,99141.40
2022-09-23T19:41:57.395Z,99133.60
2022-09-23T19:44:28.272Z,99141.40
2022-09-23T19:46:57.450Z,99142.40
2022-09-23T19:49:25.921Z,99146.60
2022-09-23T19:51:55.826Z,99143.40
2022-09-23T19:54:27.173Z,99140.20
2022-09-23T19:56:55.270Z,99139.00
2022-09-23T19:59:22.883Z,99141.80
2022-09-23T20:01:50.502Z,99142.80
2022-09-23T20:04:18.106Z,99142.20
2022-09-23T20:06:46.323Z,99142.20
2022-09-23T20:09:13.875Z,99138.80
2022-09-23T20:11:43.152Z,99136.60
2022-09-23T20:14:11.851Z,99135.80
2022-09-23T20:16:40.372Z,99136.80
2022-09-23T20:19:09.860Z,99131.60
2022-09-23T20:21:37.657Z,99133.60
2022-09-23T20:24:07.028Z,99133.60
2022-09-23T20:26:53.782Z,99132.00
2022-09-23T20:29:22.134Z,99128.20
2022-09-23T20:31:49.757Z,99121.60
2022-09-23T20:34:18.796Z,99120.00
2022-09-23T20:36:46.495Z,99121.80
2022-09-23T20:39:14.105Z,99121.20
2022-09-23T20:41:41.751Z,99119.00
2022-09-23T20:44:12.831Z,99116.00
2022-09-23T20:46:47.750Z,99116.40
2022-09-23T20:49:17.917Z,99123.00
2022-09-23T20:51:48.345Z,99118.60
2022-09-23T20:54:19.407Z,99116.60
2022-09-23T20:56:48.622Z,99117.60
2022-09-23T20:59:18.097Z,99118.20
2022-09-23T21:01:47.695Z,99116.00
2022-09-23T21:04:15.615Z,99116.60
2022-09-23T21:06:43.362Z,99115.40
2022-09-23T21:09:11.117Z,99114.20
2022-09-23T21:11:38.657Z,99114.80
2022-09-23T21:14:06.443Z,99117.60
2022-09-23T21:16:34.557Z,99116.80
2022-09-23T21:19:03.329Z,99113.00
2022-09-23T21:21:31.093Z,99112.80
2022-09-23T21:24:17.268Z,99113.00
2022-09-23T21:26:47.798Z,99120.00
2022-09-23T21:29:16.104Z,99118.00
2022-09-23T21:31:43.721Z,99120.60
2022-09-23T21:34:12.729Z,99124.20
2022-09-23T21:36:43.348Z,99121.20
2022-09-23T21:39:12.033Z,99123.20
2022-09-23T21:41:40.185Z,99120.80
2022-09-23T21:44:08.533Z,99123.00
2022-09-23T21:46:37.209Z,99120.80
2022-09-23T21:49:05.556Z,99117.40
2022-09-23T21:51:43.262Z,99113.60
2022-09-23T21:54:16.817Z,99115.00
2022-09-23T21:56:45.088Z,99115.40
2022-09-23T21:59:12.982Z,99117.20
2022-09-23T22:01:44.970Z,99111.60
2022-09-23T22:04:19.116Z,99113.40
2022-09-23T22:06:48.934Z,99116.00
2022-09-23T22:09:20.684Z,99110.40
2022-09-23T22:12:07.170Z,99110.60
2022-09-23T22:14:35.522Z,99111.00
2022-09-23T22:17:07.782Z,99110.00
2022-09-23T22:19:41.587Z,99112.60
2022-09-23T22:22:17.734Z,99108.60
2022-09-23T22:24:47.663Z,99102.80
2022-09-23T22:27:18.899Z,99106.40
2022-09-23T22:30:06.162Z,99100.20
2022-09-23T22:32:43.561Z,99098.20
2022-09-23T22:35:18.321Z,99098.20
2022-09-23T22:37:48.009Z,99094.60
2022-09-23T22:40:16.466Z,99098.20
2022-09-23T22:42:44.456Z,99098.20
2022-09-23T22:45:13.580Z,99104.20
2022-09-23T22:47:44.076Z,99099.80
2022-09-23T22:50:13.948Z,99099.20
2022-09-23T22:52:42.080Z,99101.00
2022-09-23T22:55:10.977Z,99095.80
2022-09-23T22:57:38.798Z,99094.20
2022-09-23T23:00:08.577Z,99092.00
2022-09-23T23:02:36.864Z,99096.00
2022-09-23T23:05:05.029Z,99092.20
2022-09-23T23:07:34.132Z,99096.00
2022-09-23T23:10:03.276Z,99093.00
2022-09-23T23:12:30.792Z,99092.40
2022-09-23T23:14:58.356Z,99085.80
2022-09-23T23:17:26.272Z,99084.20
2022-09-23T23:19:53.932Z,99087.60
2022-09-23T23:22:21.469Z,99084.60
2022-09-23T23:24:50.125Z,99088.20
2022-09-23T23:27:17.716Z,99083.60
2022-09-23T23:29:45.423Z,99081.80
2022-09-23T23:32:13.043Z,99082.60
2022-09-23T23:34:40.591Z,99081.20
2022-09-23T23:37:08.595Z,99082.60
2022-09-23T23:39:36.144Z,99081.80
2022-09-23T23:42:04.820Z,99081.80
2022-09-23T23:44:34.550Z,99080.40
2022-09-23T23:47:02.372Z,99080.40
2022-09-23T23:49:30.054Z,99077.40
2022-09-23T23:51:57.917Z,99077.80
2022-09-23T23:54:25.513Z,99077.40
2022-09-23T23:56:53.101Z,99073.00
2022-09-23T23:59:20.928Z,99073.80
